createdAt,value
2022-10-21T03:02:38.517Z,13.90
2022-10-21T03:05:06.043Z,13.90
2022-10-21T03:07:32.875Z,13.80
2022-10-21T03:09:59.720Z,13.90
2022-10-21T03:12:26.563Z,13.80
2022-10-21T03:14:53.557Z,13.80
2022-10-21T03:17:22.865Z,13.70
2022-10-21T03:19:53.429Z,13.70
2022-10-21T03:22:20.328Z,13.70
2022-10-21T03:24:47.224Z,13.70
2022-10-21T03:27:14.073Z,13.70
2022-10-21T03:29:40.987Z,13.70
2022-10-21T03:32:07.896Z,13.70
2022-10-21T03:34:34.748Z,13.70
2022-10-21T03:37:02.995Z,13.70
2022-10-21T03:39:29.910Z,13.70
2022-10-21T03:41:56.815Z,13.70
2022-10-21T03:44:23.759Z,13.70
2022-10-21T03:46:50.948Z,13.70
2022-10-21T03:49:21.417Z,13.80
2022-10-21T03:51:49.270Z,13.80
2022-10-21T03:54:18.212Z,13.80
2022-10-21T03:56:45.084Z,13.90
2022-10-21T03:59:12.015Z,13.90
2022-10-21T04:01:38.984Z,13.80
2022-10-21T04:04:05.947Z,13.90
2022-10-21T04:06:32.958Z,13.90
2022-10-21T04:08:59.873Z,13.90
2022-10-21T04:11:28.166Z,13.90
2022-10-21T04:13:55.090Z,13.90
2022-10-21T04:16:22.691Z,13.90
2022-10-21T04:18:49.729Z,14.00
2022-10-21T04:21:16.729Z,14.00
2022-10-21T04:23:43.632Z,14.00
2022-10-21T04:26:10.788Z,14.00
2022-10-21T04:28:39.141Z,14.10
2022-10-21T04:31:06.073Z,14.10
2022-10-21T04:33:32.962Z,14.10
2022-10-21T04:36:00.094Z,14.10
2022-10-21T04:38:28.032Z,14.10
2022-10-21T04:40:56.727Z,14.10
2022-10-21T04:43:23.803Z,14.20
2022-10-21T04:45:52.548Z,14.10
2022-10-21T04:48:20.421Z,14.20
2022-10-21T04:50:48.960Z,14.20
2022-10-21T04:53:16.577Z,14.30
2022-10-21T04:55:43.880Z,14.30
2022-10-21T04:58:11.060Z,14.40
2022-10-21T05:00:38.029Z,14.40
2022-10-21T05:03:06.264Z,14.40
2022-10-21T05:05:33.149Z,14.40
2022-10-21T05:07:59.988Z,14.40
2022-10-21T05:10:26.934Z,14.40
2022-10-21T05:12:53.786Z,14.40
2022-10-21T05:15:20.867Z,14.40
2022-10-21T05:17:47.812Z,14.40
2022-10-21T05:20:16.621Z,14.50
2022-10-21T05:22:43.470Z,14.50
2022-10-21T05:25:10.677Z,14.50
2022-10-21T05:27:38.151Z,14.50
2022-10-21T05:30:06.131Z,14.50
2022-10-21T05:32:33.135Z,14.50
2022-10-21T05:35:00.018Z,14.50
2022-10-21T05:37:28.287Z,14.50
2022-10-21T05:39:55.182Z,14.50
2022-10-21T05:42:22.087Z,14.50
2022-10-21T05:44:48.990Z,14.50
2022-10-21T05:47:16.121Z,14.50
2022-10-21T05:49:42.950Z,14.50
2022-10-21T05:52:09.841Z,14.60
2022-10-21T05:54:38.019Z,14.60
2022-10-21T05:57:04.885Z,14.50
2022-10-21T05:59:31.782Z,14.50
2022-10-21T06:01:58.631Z,14.50
2022-10-21T06:04:25.711Z,14.50
2022-10-21T06:06:52.609Z,14.50
2022-10-21T06:09:19.672Z,14.50
2022-10-21T06:11:47.901Z,14.40
2022-10-21T06:14:14.765Z,14.40
2022-10-21T06:16:41.631Z,14.40
2022-10-21T06:19:08.520Z,14.40
2022-10-21T06:21:35.478Z,14.40
2022-10-21T06:24:02.409Z,14.40
2022-10-21T06:26:30.988Z,14.40
2022-10-21T06:29:01.567Z,14.40
2022-10-21T06:31:28.506Z,14.40
2022-10-21T06:33:55.404Z,14.40
2022-10-21T06:36:22.222Z,14.40
2022-10-21T06:38:49.148Z,14.40
2022-10-21T06:41:18.034Z,14.40
2022-10-21T06:43:45.087Z,14.40
2022-10-21T06:46:15.243Z,14.50
2022-10-21T06:48:42.330Z,14.50
2022-10-21T06:51:11.945Z,14.50
2022-10-21T06:53:39.593Z,14.50
2022-10-21T06:56:08.541Z,14.50
2022-10-21T06:58:36.114Z,14.50
2022-10-21T07:01:16.447Z,14.60
2022-10-21T07:03:56.236Z,14.50
2022-10-21T07:06:23.276Z,14.50
2022-10-21T07:08:57.866Z,14.60
2022-10-21T07:11:26.155Z,14.50
2022-10-21T07:13:52.976Z,14.50
2022-10-21T07:16:22.390Z,14.50
2022-10-21T07:18:49.497Z,14.50
2022-10-21T07:21:19.627Z,14.60
2022-10-21T07:23:47.821Z,14.60
2022-10-21T07:26:15.106Z,14.60
2022-10-21T07:28:46.805Z,14.60
2022-10-21T07:31:14.395Z,14.60
2022-10-21T07:33:41.437Z,14.60
2022-10-21T07:36:10.607Z,14.60
2022-10-21T07:38:39.982Z,14.60
2022-10-21T07:41:07.081Z,14.60
2022-10-21T07:43:34.125Z,14.70
2022-10-21T07:46:04.410Z,14.70
2022-10-21T07:48:33.764Z,14.80
2022-10-21T07:51:04.072Z,14.90
2022-10-21T07:53:31.065Z,14.90
2022-10-21T07:56:04.919Z,14.90
2022-10-21T07:58:32.123Z,14.90
2022-10-21T08:01:00.388Z,14.90
2022-10-21T08:03:28.255Z,15.00
2022-10-21T08:05:55.555Z,15.00
2022-10-21T08:08:22.589Z,15.00
2022-10-21T08:13:23.561Z,15.10
2022-10-21T08:15:53.191Z,15.10
2022-10-21T08:18:20.723Z,15.10
2022-10-21T08:20:49.437Z,15.10
2022-10-21T08:23:17.819Z,15.10
2022-10-21T08:25:47.267Z,15.10
2022-10-21T08:28:14.786Z,15.10
2022-10-21T08:30:43.165Z,15.20
2022-10-21T08:33:10.174Z,15.20
2022-10-21T08:35:37.056Z,15.20
2022-10-21T08:38:04.504Z,15.20
2022-10-21T08:40:37.139Z,15.30
2022-10-21T08:43:07.968Z,15.30
2022-10-21T08:45:42.552Z,15.30
2022-10-21T08:48:16.508Z,15.40
2022-10-21T08:50:47.595Z,15.40
2022-10-21T08:53:18.962Z,15.40
2022-10-21T08:55:46.445Z,15.40
2022-10-21T08:58:16.486Z,15.40
2022-10-21T09:00:47.554Z,15.40
2022-10-21T09:03:27.245Z,15.50
2022-10-21T09:06:14.909Z,15.50
2022-10-21T09:08:57.484Z,15.50
2022-10-21T09:11:34.381Z,15.60
2022-10-21T09:14:40.842Z,15.60
2022-10-21T09:17:22.774Z,15.60
2022-10-21T09:19:58.834Z,15.60
2022-10-21T09:22:44.720Z,15.60
2022-10-21T09:25:21.268Z,15.50
2022-10-21T09:27:56.113Z,15.40
2022-10-21T09:30:24.398Z,15.30
2022-10-21T09:32:56.488Z,15.20
2022-10-21T09:35:32.170Z,15.20
2022-10-21T09:38:02.505Z,15.20
2022-10-21T09:40:30.914Z,15.20
2022-10-21T09:42:59.513Z,15.20
2022-10-21T09:45:31.813Z,15.20
2022-10-21T09:48:01.048Z,15.20
2022-10-21T09:53:06.343Z,15.30
2022-10-21T09:55:33.972Z,15.30
2022-10-21T09:58:02.739Z,15.40
2022-10-21T10:00:45.401Z,15.50
2022-10-21T10:03:12.720Z,15.50
2022-10-21T10:05:44.438Z,15.50
2022-10-21T10:08:28.262Z,15.50
2022-10-21T10:11:03.194Z,15.60
2022-10-21T10:13:31.593Z,15.60
2022-10-21T10:16:17.259Z,15.60
2022-10-21T10:18:45.330Z,15.70
2022-10-21T10:21:14.850Z,15.70
2022-10-21T10:23:47.166Z,15.70
2022-10-21T10:26:27.924Z,15.70
2022-10-21T10:28:58.442Z,15.80
2022-10-21T10:31:29.499Z,15.80
2022-10-21T10:33:59.661Z,15.80
2022-10-21T10:36:34.793Z,15.80
2022-10-21T10:39:03.834Z,15.80
2022-10-21T10:41:36.219Z,15.90
2022-10-21T10:44:10.399Z,15.90
2022-10-21T10:46:38.522Z,15.90
2022-10-21T10:49:17.207Z,16.00
2022-10-21T10:51:48.896Z,16.00
2022-10-21T10:54:18.420Z,16.00
2022-10-21T10:56:50.356Z,16.10
2022-10-21T10:59:26.843Z,16.10
2022-10-21T11:02:00.147Z,16.10
2022-10-21T11:04:33.711Z,16.10
2022-10-21T11:07:11.046Z,16.20
2022-10-21T11:09:38.439Z,16.20
2022-10-21T11:12:13.629Z,16.30
2022-10-21T11:14:40.490Z,16.40
2022-10-21T11:17:12.251Z,16.40
2022-10-21T11:19:52.781Z,16.50
2022-10-21T11:22:31.396Z,16.50
2022-10-21T11:25:05.189Z,16.50
2022-10-21T11:27:52.265Z,16.60
2022-10-21T11:30:22.049Z,16.60
2022-10-21T11:33:01.979Z,16.70
2022-10-21T11:35:37.307Z,16.80
2022-10-21T11:38:28.093Z,16.90
2022-10-21T11:41:02.483Z,17.00
2022-10-21T11:43:41.881Z,17.20
2022-10-21T11:46:13.981Z,17.40
2022-10-21T11:48:54.838Z,17.70
2022-10-21T11:51:35.432Z,17.90
2022-10-21T11:54:33.016Z,18.10
2022-10-21T11:57:07.531Z,18.20
2022-10-21T11:59:51.653Z,18.20
2022-10-21T12:02:31.160Z,18.20
2022-10-21T12:05:07.405Z,18.20
2022-10-21T12:07:46.490Z,18.10
2022-10-21T12:10:27.170Z,18.00
2022-10-21T12:12:57.469Z,17.90
2022-10-21T12:15:31.848Z,17.80
2022-10-21T12:18:01.751Z,17.70
2022-10-21T12:20:28.842Z,17.70
2022-10-21T12:23:02.154Z,17.60
2022-10-21T12:25:38.798Z,17.60
2022-10-21T12:28:13.778Z,17.60
2022-10-21T12:30:50.796Z,17.50
2022-10-21T12:33:31.039Z,17.50
2022-10-21T12:36:19.904Z,17.50
2022-10-21T12:38:49.299Z,17.40
2022-10-21T12:41:29.819Z,17.40
2022-10-21T12:44:06.615Z,17.30
2022-10-21T12:46:39.947Z,17.30
2022-10-21T12:49:20.308Z,17.30
2022-10-21T12:51:50.062Z,17.30
2022-10-21T12:54:20.848Z,17.20
2022-10-21T12:56:51.744Z,17.20
2022-10-21T12:59:31.808Z,17.20
2022-10-21T13:02:24.782Z,17.20
2022-10-21T13:04:57.574Z,17.20
2022-10-21T13:07:30.844Z,17.30
2022-10-21T13:10:34.066Z,17.30
2022-10-21T13:13:40.515Z,17.30
2022-10-21T13:16:39.217Z,17.20
2022-10-21T13:19:34.088Z,17.20
2022-10-21T13:22:03.332Z,17.10
2022-10-21T13:24:32.849Z,17.00
2022-10-21T13:27:02.523Z,16.90
2022-10-21T13:29:41.364Z,16.70
2022-10-21T13:32:31.094Z,16.70
2022-10-21T13:35:26.409Z,16.60
2022-10-21T13:38:00.972Z,16.40
2022-10-21T13:40:36.675Z,16.20
2022-10-21T13:43:11.341Z,15.90
2022-10-21T13:45:46.068Z,15.70
2022-10-21T13:48:16.662Z,15.50
2022-10-21T13:50:46.088Z,15.50
2022-10-21T13:53:29.160Z,15.40
2022-10-21T13:55:58.561Z,15.30
2022-10-21T13:58:27.515Z,15.30
2022-10-21T14:00:57.953Z,15.30
2022-10-21T14:03:28.043Z,15.30
2022-10-21T14:05:58.676Z,15.30
2022-10-21T14:08:28.809Z,15.30
2022-10-21T14:10:59.012Z,15.30
2022-10-21T14:13:28.958Z,15.20
2022-10-21T14:15:56.555Z,15.20
2022-10-21T14:18:33.670Z,15.20
2022-10-21T14:21:04.573Z,15.10
2022-10-21T14:23:31.824Z,15.10
2022-10-21T14:26:05.338Z,15.00
2022-10-21T14:28:33.244Z,15.00
2022-10-21T14:31:01.396Z,15.10
2022-10-21T14:33:30.022Z,15.10
2022-10-21T14:36:12.639Z,15.00
2022-10-21T14:38:51.904Z,15.10
2022-10-21T14:41:22.987Z,15.00
2022-10-21T14:43:51.415Z,15.00
2022-10-21T14:46:18.757Z,15.10
2022-10-21T14:48:49.239Z,15.10
2022-10-21T14:51:21.257Z,15.10
2022-10-21T14:53:56.219Z,15.00
2022-10-21T14:56:29.522Z,15.20
2022-10-21T14:58:58.864Z,15.20
2022-10-21T15:01:26.333Z,15.20
2022-10-21T15:03:56.507Z,15.20
2022-10-21T15:06:25.471Z,15.20
2022-10-21T15:09:02.184Z,15.20
2022-10-21T15:11:38.859Z,15.30
2022-10-21T15:14:16.852Z,15.30
2022-10-21T15:16:47.990Z,15.30
2022-10-21T15:19:20.782Z,15.30
2022-10-21T15:21:50.660Z,15.30
2022-10-21T15:24:21.210Z,15.40
2022-10-21T15:26:50.472Z,15.30
2022-10-21T15:29:27.450Z,15.40
2022-10-21T15:31:56.307Z,15.40
2022-10-21T15:34:24.948Z,15.40
2022-10-21T15:36:52.016Z,15.40
2022-10-21T15:39:19.493Z,15.40
2022-10-21T15:41:48.884Z,15.40
2022-10-21T15:44:20.719Z,15.40
2022-10-21T15:46:50.141Z,15.40
2022-10-21T15:49:19.377Z,15.40
2022-10-21T15:51:49.141Z,15.40
2022-10-21T15:54:17.812Z,15.40
2022-10-21T15:56:46.513Z,15.40
2022-10-21T15:59:18.295Z,15.40
2022-10-21T16:01:45.599Z,15.30
2022-10-21T16:04:12.730Z,15.30
2022-10-21T16:06:45.563Z,15.30
2022-10-21T16:09:20.615Z,15.30
2022-10-21T16:11:59.019Z,15.30
2022-10-21T16:14:29.288Z,15.30
2022-10-21T16:17:00.751Z,15.30
2022-10-21T16:19:28.503Z,15.30
2022-10-21T16:21:56.112Z,15.30
2022-10-21T16:24:24.736Z,15.30
2022-10-21T16:26:51.626Z,15.30
2022-10-21T16:29:20.131Z,15.30
2022-10-21T16:31:47.577Z,15.30
2022-10-21T16:34:14.619Z,15.20
2022-10-21T16:36:41.664Z,15.20
2022-10-21T16:39:13.633Z,15.20
2022-10-21T16:41:41.851Z,15.20
2022-10-21T16:44:08.935Z,15.20
2022-10-21T16:46:38.552Z,15.20
2022-10-21T16:49:12.195Z,15.20
2022-10-21T16:51:41.892Z,15.20
2022-10-21T16:54:09.792Z,15.20
2022-10-21T16:56:36.808Z,15.20
2022-10-21T16:59:05.295Z,15.30
2022-10-21T17:01:32.207Z,15.30
2022-10-21T17:03:59.166Z,15.30
2022-10-21T17:06:26.989Z,15.30
2022-10-21T17:08:55.245Z,15.30
2022-10-21T17:11:24.120Z,15.30
2022-10-21T17:13:51.564Z,15.30
2022-10-21T17:16:22.921Z,15.30
2022-10-21T17:18:49.909Z,15.30
2022-10-21T17:21:20.985Z,15.30
2022-10-21T17:23:48.487Z,15.30
2022-10-21T17:26:15.679Z,15.30
2022-10-21T17:28:42.625Z,15.30
2022-10-21T17:31:13.885Z,15.30
2022-10-21T17:33:42.540Z,15.20
2022-10-21T17:36:09.718Z,15.30
2022-10-21T17:38:36.889Z,15.30
2022-10-21T17:41:04.470Z,15.30
2022-10-21T17:43:31.310Z,15.30
2022-10-21T17:45:58.319Z,15.30
2022-10-21T17:48:25.468Z,15.30
2022-10-21T17:50:57.739Z,15.30
2022-10-21T17:53:25.183Z,15.30
2022-10-21T17:55:58.792Z,15.30
2022-10-21T17:58:26.159Z,15.30
2022-10-21T18:00:53.338Z,15.20
2022-10-21T18:03:20.322Z,15.20
2022-10-21T18:05:47.326Z,15.20
2022-10-21T18:08:15.568Z,15.20
2022-10-21T18:10:42.428Z,15.20
2022-10-21T18:13:09.491Z,15.20
2022-10-21T18:15:37.745Z,15.30
2022-10-21T18:18:04.672Z,15.20
2022-10-21T18:20:38.490Z,15.30
2022-10-21T18:23:05.426Z,15.30
2022-10-21T18:25:35.239Z,15.30
2022-10-21T18:28:02.289Z,15.30
2022-10-21T18:30:29.400Z,15.30
2022-10-21T18:32:56.292Z,15.30
2022-10-21T18:35:23.213Z,15.30
2022-10-21T18:37:50.657Z,15.30
2022-10-21T18:40:17.914Z,15.20
2022-10-21T18:42:46.144Z,15.30
2022-10-21T18:45:13.013Z,15.20
2022-10-21T18:47:40.949Z,15.30
2022-10-21T18:50:10.874Z,15.30
2022-10-21T18:52:37.852Z,15.30
2022-10-21T18:57:33.232Z,15.30
2022-10-21T19:00:01.475Z,15.30
2022-10-21T19:02:28.468Z,15.30
2022-10-21T19:04:57.182Z,15.30
2022-10-21T19:07:26.748Z,15.40
2022-10-21T19:09:53.688Z,15.40
2022-10-21T19:12:23.364Z,15.40
2022-10-21T19:14:50.939Z,15.40
2022-10-21T19:17:19.818Z,15.40
2022-10-21T19:19:46.735Z,15.40
2022-10-21T19:22:14.586Z,15.40
2022-10-21T19:24:41.504Z,15.40
2022-10-21T19:27:08.512Z,15.40
2022-10-21T19:29:35.425Z,15.50
2022-10-21T19:32:02.250Z,15.40
2022-10-21T19:34:30.496Z,15.50
2022-10-21T19:36:57.431Z,15.50
2022-10-21T19:39:24.940Z,15.40
2022-10-21T19:41:51.850Z,15.50
2022-10-21T19:44:18.774Z,15.40
2022-10-21T19:46:45.670Z,15.50
2022-10-21T19:49:15.575Z,15.50
2022-10-21T19:51:44.355Z,15.40
2022-10-21T19:54:12.456Z,15.40
2022-10-21T19:56:39.954Z,15.40
2022-10-21T19:59:07.249Z,15.40
2022-10-21T20:01:34.498Z,15.40
2022-10-21T20:04:05.337Z,15.40
2022-10-21T20:06:34.042Z,15.40
2022-10-21T20:09:04.965Z,15.40
2022-10-21T20:11:31.929Z,15.40
2022-10-21T20:13:59.315Z,15.40
2022-10-21T20:16:28.195Z,15.40
2022-10-21T20:18:56.297Z,15.30
2022-10-21T20:21:23.875Z,15.30
2022-10-21T20:23:51.454Z,15.20
2022-10-21T20:26:20.549Z,15.20
2022-10-21T20:28:47.464Z,15.20
2022-10-21T20:31:16.169Z,15.10
2022-10-21T20:33:45.321Z,15.10
2022-10-21T20:36:14.599Z,15.00
2022-10-21T20:38:41.909Z,15.00
2022-10-21T20:41:11.395Z,15.00
2022-10-21T20:43:41.615Z,15.00
2022-10-21T20:46:10.320Z,15.00
2022-10-21T20:48:41.047Z,15.00
2022-10-21T20:51:09.822Z,14.90
2022-10-21T20:53:39.913Z,14.90
2022-10-21T20:56:07.624Z,14.90
2022-10-21T20:58:34.872Z,14.70
2022-10-21T21:01:08.220Z,14.50
2022-10-21T21:03:36.081Z,14.40
2022-10-21T21:06:03.307Z,14.30
2022-10-21T21:08:32.573Z,14.20
2022-10-21T21:11:00.403Z,14.10
2022-10-21T21:13:27.330Z,14.10
2022-10-21T21:16:03.183Z,14.10
2022-10-21T21:18:31.646Z,14.00
2022-10-21T21:23:35.052Z,14.00
2022-10-21T21:26:04.233Z,14.00
2022-10-21T21:28:34.013Z,14.00
2022-10-21T21:31:03.312Z,13.90
2022-10-21T21:33:33.819Z,13.90
2022-10-21T21:36:01.137Z,13.90
2022-10-21T21:38:28.924Z,13.90
2022-10-21T21:40:55.853Z,13.90
2022-10-21T21:43:22.770Z,13.90
2022-10-21T21:45:51.137Z,13.90
2022-10-21T21:48:18.521Z,13.90
2022-10-21T21:50:46.812Z,13.90
2022-10-21T21:53:15.693Z,13.90
2022-10-21T21:55:42.947Z,13.90
2022-10-21T21:58:09.841Z,13.90
2022-10-21T22:00:37.153Z,13.80
2022-10-21T22:03:05.211Z,13.80
2022-10-21T22:05:32.255Z,13.80
2022-10-21T22:08:01.277Z,13.70
2022-10-21T22:10:28.737Z,13.60
2022-10-21T22:12:56.554Z,13.60
2022-10-21T22:15:43.218Z,13.60
2022-10-21T22:18:10.576Z,13.60
2022-10-21T22:20:39.358Z,13.50
2022-10-21T22:23:07.628Z,13.50
2022-10-21T22:25:34.655Z,13.40
2022-10-21T22:28:01.633Z,13.40
2022-10-21T22:30:28.595Z,13.30
2022-10-21T22:32:55.486Z,13.30
2022-10-21T22:35:22.439Z,13.30
2022-10-21T22:37:49.316Z,13.30
2022-10-21T22:40:17.688Z,13.30
2022-10-21T22:45:16.619Z,13.10
2022-10-21T22:47:43.525Z,13.10
2022-10-21T22:50:10.486Z,13.10
2022-10-21T22:52:37.552Z,13.10
2022-10-21T22:55:05.338Z,13.10
2022-10-21T22:57:33.675Z,13.10
2022-10-21T23:00:00.566Z,13.00
